sensor_id;sensor_type;location;lat;lon;timestamp;temperature;humidity
74101;DHT22;62462;52.530;21.682;2023-07-16T00:01:44;24.20;49.90
74101;DHT22;62462;52.530;21.682;2023-07-16T00:04:09;24.20;49.90
74101;DHT22;62462;52.530;21.682;2023-07-16T00:06:35;24.20;50.00
74101;DHT22;62462;52.530;21.682;2023-07-16T00:09:01;24.20;50.30
74101;DHT22;62462;52.530;21.682;2023-07-16T00:11:26;24.10;50.30
74101;DHT22;62462;52.530;21.682;2023-07-16T00:13:52;24.10;50.20
74101;DHT22;62462;52.530;21.682;2023-07-16T00:16:18;24.10;50.70
74101;DHT22;62462;52.530;21.682;2023-07-16T00:18:45;24.00;50.60
74101;DHT22;62462;52.530;21.682;2023-07-16T00:21:10;24.00;50.50
74101;DHT22;62462;52.530;21.682;2023-07-16T00:23:36;24.00;50.70
74101;DHT22;62462;52.530;21.682;2023-07-16T00:26:02;24.00;50.60
74101;DHT22;62462;52.530;21.682;2023-07-16T00:28:29;24.00;50.60
74101;DHT22;62462;52.530;21.682;2023-07-16T00:30:54;24.00;50.80
74101;DHT22;62462;52.530;21.682;2023-07-16T00:33:20;24.00;50.80
74101;DHT22;62462;52.530;21.682;2023-07-16T00:35:49;24.00;51.00
74101;DHT22;62462;52.530;21.682;2023-07-16T00:38:19;23.90;51.10
74101;DHT22;62462;52.530;21.682;2023-07-16T00:40:47;23.90;51.30
74101;DHT22;62462;52.530;21.682;2023-07-16T00:43:13;23.80;51.30
74101;DHT22;62462;52.530;21.682;2023-07-16T00:45:40;23.80;51.80
74101;DHT22;62462;52.530;21.682;2023-07-16T00:48:07;23.70;51.90
74101;DHT22;62462;52.530;21.682;2023-07-16T00:50:36;23.60;52.20
74101;DHT22;62462;52.530;21.682;2023-07-16T00:53:05;23.60;52.20
74101;DHT22;62462;52.530;21.682;2023-07-16T00:55:32;23.60;52.20
74101;DHT22;62462;52.530;21.682;2023-07-16T00:58:03;23.60;52.30
74101;DHT22;62462;52.530;21.682;2023-07-16T01:00:34;23.60;52.10
74101;DHT22;62462;52.530;21.682;2023-07-16T01:03:11;23.60;52.10
74101;DHT22;62462;52.530;21.682;2023-07-16T01:08:14;23.70;52.00
74101;DHT22;62462;52.530;21.682;2023-07-16T01:10:44;23.70;52.00
74101;DHT22;62462;52.530;21.682;2023-07-16T01:13:10;23.70;52.00
74101;DHT22;62462;52.530;21.682;2023-07-16T01:15:36;23.60;52.20
74101;DHT22;62462;52.530;21.682;2023-07-16T01:18:03;23.60;52.00
74101;DHT22;62462;52.530;21.682;2023-07-16T01:20:29;23.60;52.40
74101;DHT22;62462;52.530;21.682;2023-07-16T01:23:22;23.50;52.60
74101;DHT22;62462;52.530;21.682;2023-07-16T01:28:54;23.40;52.90
74101;DHT22;62462;52.530;21.682;2023-07-16T01:31:21;23.40;53.20
74101;DHT22;62462;52.530;21.682;2023-07-16T01:33:49;23.30;53.20
74101;DHT22;62462;52.530;21.682;2023-07-16T01:36:17;23.30;53.30
74101;DHT22;62462;52.530;21.682;2023-07-16T01:38:44;23.30;53.40
74101;DHT22;62462;52.530;21.682;2023-07-16T01:41:10;23.20;53.60
74101;DHT22;62462;52.530;21.682;2023-07-16T01:43:36;23.20;53.80
74101;DHT22;62462;52.530;21.682;2023-07-16T01:46:02;23.10;53.90
74101;DHT22;62462;52.530;21.682;2023-07-16T01:50:57;23.10;54.10
74101;DHT22;62462;52.530;21.682;2023-07-16T01:53:22;23.10;54.20
74101;DHT22;62462;52.530;21.682;2023-07-16T01:55:48;23.00;54.90
74101;DHT22;62462;52.530;21.682;2023-07-16T01:58:14;23.10;54.20
74101;DHT22;62462;52.530;21.682;2023-07-16T02:00:40;23.00;54.10
74101;DHT22;62462;52.530;21.682;2023-07-16T02:03:05;23.00;54.20
74101;DHT22;62462;52.530;21.682;2023-07-16T02:05:31;23.00;54.50
74101;DHT22;62462;52.530;21.682;2023-07-16T02:07:57;22.90;54.50
74101;DHT22;62462;52.530;21.682;2023-07-16T02:10:23;22.90;54.50
74101;DHT22;62462;52.530;21.682;2023-07-16T02:12:49;22.90;54.50
74101;DHT22;62462;52.530;21.682;2023-07-16T02:15:14;22.90;54.50
74101;DHT22;62462;52.530;21.682;2023-07-16T02:17:41;22.90;54.70
74101;DHT22;62462;52.530;21.682;2023-07-16T02:20:07;22.90;54.70
74101;DHT22;62462;52.530;21.682;2023-07-16T02:22:34;22.80;54.90
74101;DHT22;62462;52.530;21.682;2023-07-16T02:25:00;22.80;55.00
74101;DHT22;62462;52.530;21.682;2023-07-16T02:27:26;22.70;55.20
74101;DHT22;62462;52.530;21.682;2023-07-16T02:29:52;22.70;55.50
74101;DHT22;62462;52.530;21.682;2023-07-16T02:32:18;22.60;55.60
74101;DHT22;62462;52.530;21.682;2023-07-16T02:34:43;22.60;56.50
74101;DHT22;62462;52.530;21.682;2023-07-16T02:37:09;22.60;55.80
74101;DHT22;62462;52.530;21.682;2023-07-16T02:39:35;22.60;55.50
74101;DHT22;62462;52.530;21.682;2023-07-16T02:42:01;22.70;55.50
74101;DHT22;62462;52.530;21.682;2023-07-16T02:44:26;22.70;55.30
74101;DHT22;62462;52.530;21.682;2023-07-16T02:46:52;22.70;55.10
74101;DHT22;62462;52.530;21.682;2023-07-16T02:49:17;22.70;55.40
74101;DHT22;62462;52.530;21.682;2023-07-16T02:51:43;22.60;55.40
74101;DHT22;62462;52.530;21.682;2023-07-16T02:54:09;22.60;55.70
74101;DHT22;62462;52.530;21.682;2023-07-16T02:56:35;22.60;55.60
74101;DHT22;62462;52.530;21.682;2023-07-16T02:59:00;22.60;55.80
74101;DHT22;62462;52.530;21.682;2023-07-16T03:01:26;22.60;55.90
74101;DHT22;62462;52.530;21.682;2023-07-16T03:03:51;22.50;56.30
74101;DHT22;62462;52.530;21.682;2023-07-16T03:06:17;22.50;56.30
74101;DHT22;62462;52.530;21.682;2023-07-16T03:08:43;22.50;56.30
74101;DHT22;62462;52.530;21.682;2023-07-16T03:11:11;22.50;56.30
74101;DHT22;62462;52.530;21.682;2023-07-16T03:13:37;22.50;56.30
74101;DHT22;62462;52.530;21.682;2023-07-16T03:16:02;22.50;56.30
74101;DHT22;62462;52.530;21.682;2023-07-16T03:18:29;22.50;56.40
74101;DHT22;62462;52.530;21.682;2023-07-16T03:20:58;22.50;56.60
74101;DHT22;62462;52.530;21.682;2023-07-16T03:23:24;22.50;56.60
74101;DHT22;62462;52.530;21.682;2023-07-16T03:25:51;22.50;56.80
74101;DHT22;62462;52.530;21.682;2023-07-16T03:28:17;22.50;56.70
74101;DHT22;62462;52.530;21.682;2023-07-16T03:30:50;22.50;57.00
74101;DHT22;62462;52.530;21.682;2023-07-16T03:33:16;22.40;57.20
74101;DHT22;62462;52.530;21.682;2023-07-16T03:35:43;22.40;57.30
74101;DHT22;62462;52.530;21.682;2023-07-16T03:38:13;22.40;57.60
74101;DHT22;62462;52.530;21.682;2023-07-16T03:40:39;22.40;57.70
74101;DHT22;62462;52.530;21.682;2023-07-16T03:43:05;22.40;57.90
74101;DHT22;62462;52.530;21.682;2023-07-16T03:45:31;22.40;57.70
74101;DHT22;62462;52.530;21.682;2023-07-16T03:47:57;22.40;58.00
74101;DHT22;62462;52.530;21.682;2023-07-16T03:50:22;22.50;57.50
74101;DHT22;62462;52.530;21.682;2023-07-16T03:52:48;22.60;57.60
74101;DHT22;62462;52.530;21.682;2023-07-16T03:55:14;22.60;57.40
74101;DHT22;62462;52.530;21.682;2023-07-16T03:57:40;22.60;57.40
74101;DHT22;62462;52.530;21.682;2023-07-16T04:00:06;22.70;57.50
74101;DHT22;62462;52.530;21.682;2023-07-16T04:02:33;22.70;57.50
74101;DHT22;62462;52.530;21.682;2023-07-16T04:04:59;22.70;57.60
74101;DHT22;62462;52.530;21.682;2023-07-16T04:07:24;22.70;57.70
74101;DHT22;62462;52.530;21.682;2023-07-16T04:09:51;22.70;57.70
74101;DHT22;62462;52.530;21.682;2023-07-16T04:12:17;22.70;58.00
74101;DHT22;62462;52.530;21.682;2023-07-16T04:14:42;22.80;58.10
74101;DHT22;62462;52.530;21.682;2023-07-16T04:17:08;22.90;58.10
74101;DHT22;62462;52.530;21.682;2023-07-16T04:19:34;22.90;58.00
74101;DHT22;62462;52.530;21.682;2023-07-16T04:22:00;22.90;57.80
74101;DHT22;62462;52.530;21.682;2023-07-16T04:24:26;23.00;57.80
74101;DHT22;62462;52.530;21.682;2023-07-16T04:26:53;23.10;57.70
74101;DHT22;62462;52.530;21.682;2023-07-16T04:29:19;23.10;57.70
74101;DHT22;62462;52.530;21.682;2023-07-16T04:31:45;23.30;57.70
74101;DHT22;62462;52.530;21.682;2023-07-16T04:34:10;23.30;57.50
74101;DHT22;62462;52.530;21.682;2023-07-16T04:36:36;23.40;57.40
74101;DHT22;62462;52.530;21.682;2023-07-16T04:39:02;23.40;57.40
74101;DHT22;62462;52.530;21.682;2023-07-16T04:41:28;23.50;57.10
74101;DHT22;62462;52.530;21.682;2023-07-16T04:43:53;23.60;56.90
74101;DHT22;62462;52.530;21.682;2023-07-16T04:46:19;23.80;56.70
74101;DHT22;62462;52.530;21.682;2023-07-16T04:48:45;23.90;56.80
74101;DHT22;62462;52.530;21.682;2023-07-16T04:51:10;24.00;56.70
74101;DHT22;62462;52.530;21.682;2023-07-16T04:53:36;24.10;56.30
74101;DHT22;62462;52.530;21.682;2023-07-16T04:56:02;24.20;56.00
74101;DHT22;62462;52.530;21.682;2023-07-16T04:58:28;24.30;55.80
74101;DHT22;62462;52.530;21.682;2023-07-16T05:00:53;24.40;56.30
74101;DHT22;62462;52.530;21.682;2023-07-16T05:03:19;24.40;55.90
74101;DHT22;62462;52.530;21.682;2023-07-16T05:05:44;24.50;55.90
74101;DHT22;62462;52.530;21.682;2023-07-16T05:08:10;24.60;55.70
74101;DHT22;62462;52.530;21.682;2023-07-16T05:10:36;24.60;55.70
74101;DHT22;62462;52.530;21.682;2023-07-16T05:13:02;24.70;55.40
74101;DHT22;62462;52.530;21.682;2023-07-16T05:15:29;24.80;55.40
74101;DHT22;62462;52.530;21.682;2023-07-16T05:17:55;24.90;55.60
74101;DHT22;62462;52.530;21.682;2023-07-16T05:20:23;25.00;55.20
74101;DHT22;62462;52.530;21.682;2023-07-16T05:22:48;25.10;55.30
74101;DHT22;62462;52.530;21.682;2023-07-16T05:25:14;25.20;55.00
74101;DHT22;62462;52.530;21.682;2023-07-16T05:27:40;25.30;55.00
74101;DHT22;62462;52.530;21.682;2023-07-16T05:30:06;25.40;55.00
74101;DHT22;62462;52.530;21.682;2023-07-16T05:32:32;25.40;54.60
74101;DHT22;62462;52.530;21.682;2023-07-16T05:34:57;25.50;54.90
74101;DHT22;62462;52.530;21.682;2023-07-16T05:37:23;25.60;54.60
74101;DHT22;62462;52.530;21.682;2023-07-16T05:39:49;25.70;54.50
74101;DHT22;62462;52.530;21.682;2023-07-16T05:42:14;25.90;54.30
74101;DHT22;62462;52.530;21.682;2023-07-16T05:44:40;26.00;54.00
74101;DHT22;62462;52.530;21.682;2023-07-16T05:47:07;26.10;53.70
74101;DHT22;62462;52.530;21.682;2023-07-16T05:49:33;26.20;53.60
74101;DHT22;62462;52.530;21.682;2023-07-16T05:51:59;26.30;54.30
74101;DHT22;62462;52.530;21.682;2023-07-16T05:54:25;26.50;53.20
74101;DHT22;62462;52.530;21.682;2023-07-16T05:56:50;26.60;52.70
74101;DHT22;62462;52.530;21.682;2023-07-16T05:59:16;26.60;52.50
74101;DHT22;62462;52.530;21.682;2023-07-16T06:01:42;26.70;52.40
74101;DHT22;62462;52.530;21.682;2023-07-16T06:04:07;26.70;52.30
74101;DHT22;62462;52.530;21.682;2023-07-16T06:06:33;26.80;52.50
74101;DHT22;62462;52.530;21.682;2023-07-16T06:08:59;26.90;51.90
74101;DHT22;62462;52.530;21.682;2023-07-16T06:11:24;27.00;51.80
74101;DHT22;62462;52.530;21.682;2023-07-16T06:13:53;27.10;51.90
74101;DHT22;62462;52.530;21.682;2023-07-16T06:16:20;27.20;51.50
74101;DHT22;62462;52.530;21.682;2023-07-16T06:18:46;27.40;51.10
74101;DHT22;62462;52.530;21.682;2023-07-16T06:21:11;27.60;50.90
74101;DHT22;62462;52.530;21.682;2023-07-16T06:23:38;27.70;50.00
74101;DHT22;62462;52.530;21.682;2023-07-16T06:26:03;27.80;49.40
74101;DHT22;62462;52.530;21.682;2023-07-16T06:28:29;27.90;50.70
74101;DHT22;62462;52.530;21.682;2023-07-16T06:30:55;28.00;48.80
74101;DHT22;62462;52.530;21.682;2023-07-16T06:33:21;28.10;48.80
74101;DHT22;62462;52.530;21.682;2023-07-16T06:35:47;28.20;48.60
74101;DHT22;62462;52.530;21.682;2023-07-16T06:38:14;28.30;48.40
74101;DHT22;62462;52.530;21.682;2023-07-16T06:40:46;28.40;48.20
74101;DHT22;62462;52.530;21.682;2023-07-16T06:43:12;28.40;48.00
74101;DHT22;62462;52.530;21.682;2023-07-16T06:45:38;28.50;47.50
74101;DHT22;62462;52.530;21.682;2023-07-16T06:48:04;28.70;47.00
74101;DHT22;62462;52.530;21.682;2023-07-16T06:50:30;28.80;46.80
74101;DHT22;62462;52.530;21.682;2023-07-16T06:52:55;28.80;46.50
74101;DHT22;62462;52.530;21.682;2023-07-16T06:55:21;28.90;46.50
74101;DHT22;62462;52.530;21.682;2023-07-16T06:57:47;29.00;46.60
74101;DHT22;62462;52.530;21.682;2023-07-16T07:00:12;29.10;45.90
74101;DHT22;62462;52.530;21.682;2023-07-16T07:02:38;29.20;45.70
74101;DHT22;62462;52.530;21.682;2023-07-16T07:05:04;29.30;45.30
74101;DHT22;62462;52.530;21.682;2023-07-16T07:07:30;29.40;45.40
74101;DHT22;62462;52.530;21.682;2023-07-16T07:09:55;29.50;44.90
74101;DHT22;62462;52.530;21.682;2023-07-16T07:12:21;29.60;43.90
74101;DHT22;62462;52.530;21.682;2023-07-16T07:14:47;29.80;43.80
74101;DHT22;62462;52.530;21.682;2023-07-16T07:17:14;29.80;43.70
74101;DHT22;62462;52.530;21.682;2023-07-16T07:19:40;29.90;43.70
74101;DHT22;62462;52.530;21.682;2023-07-16T07:22:06;30.10;43.50
74101;DHT22;62462;52.530;21.682;2023-07-16T07:24:32;30.10;42.40
74101;DHT22;62462;52.530;21.682;2023-07-16T07:26:57;30.20;42.40
74101;DHT22;62462;52.530;21.682;2023-07-16T07:29:23;30.20;42.20
74101;DHT22;62462;52.530;21.682;2023-07-16T07:31:50;30.30;42.40
74101;DHT22;62462;52.530;21.682;2023-07-16T07:34:16;30.30;41.70
74101;DHT22;62462;52.530;21.682;2023-07-16T07:36:41;30.40;41.40
74101;DHT22;62462;52.530;21.682;2023-07-16T07:39:07;30.60;41.90
74101;DHT22;62462;52.530;21.682;2023-07-16T07:41:33;30.70;41.50
74101;DHT22;62462;52.530;21.682;2023-07-16T07:43:59;30.80;40.90
74101;DHT22;62462;52.530;21.682;2023-07-16T07:46:25;30.90;40.30
74101;DHT22;62462;52.530;21.682;2023-07-16T07:48:50;31.00;41.10
74101;DHT22;62462;52.530;21.682;2023-07-16T07:51:16;31.10;40.40
74101;DHT22;62462;52.530;21.682;2023-07-16T07:53:42;31.20;40.20
74101;DHT22;62462;52.530;21.682;2023-07-16T07:56:07;31.30;39.70
74101;DHT22;62462;52.530;21.682;2023-07-16T07:58:33;31.40;38.80
74101;DHT22;62462;52.530;21.682;2023-07-16T08:01:06;31.40;38.80
74101;DHT22;62462;52.530;21.682;2023-07-16T08:03:32;31.50;38.50
74101;DHT22;62462;52.530;21.682;2023-07-16T08:05:57;31.60;38.80
74101;DHT22;62462;52.530;21.682;2023-07-16T08:08:23;31.60;37.80
74101;DHT22;62462;52.530;21.682;2023-07-16T08:10:49;31.70;37.80
74101;DHT22;62462;52.530;21.682;2023-07-16T08:13:15;31.70;37.20
74101;DHT22;62462;52.530;21.682;2023-07-16T08:15:40;31.70;37.10
74101;DHT22;62462;52.530;21.682;2023-07-16T08:18:06;31.80;37.40
74101;DHT22;62462;52.530;21.682;2023-07-16T08:20:32;31.90;37.00
74101;DHT22;62462;52.530;21.682;2023-07-16T08:22:57;32.00;36.30
74101;DHT22;62462;52.530;21.682;2023-07-16T08:25:23;32.00;35.90
74101;DHT22;62462;52.530;21.682;2023-07-16T08:27:49;32.00;37.00
74101;DHT22;62462;52.530;21.682;2023-07-16T08:30:15;32.10;36.60
74101;DHT22;62462;52.530;21.682;2023-07-16T08:32:41;32.20;33.70
74101;DHT22;62462;52.530;21.682;2023-07-16T08:35:07;32.30;34.80
74101;DHT22;62462;52.530;21.682;2023-07-16T08:37:32;32.40;34.70
74101;DHT22;62462;52.530;21.682;2023-07-16T08:39:58;32.50;35.30
74101;DHT22;62462;52.530;21.682;2023-07-16T08:42:24;32.60;33.60
74101;DHT22;62462;52.530;21.682;2023-07-16T08:44:50;32.80;34.10
74101;DHT22;62462;52.530;21.682;2023-07-16T08:47:16;32.80;33.60
74101;DHT22;62462;52.530;21.682;2023-07-16T08:49:56;32.80;33.30
74101;DHT22;62462;52.530;21.682;2023-07-16T08:52:22;32.90;34.10
74101;DHT22;62462;52.530;21.682;2023-07-16T08:54:48;33.00;33.80
74101;DHT22;62462;52.530;21.682;2023-07-16T08:57:14;33.00;33.80
74101;DHT22;62462;52.530;21.682;2023-07-16T08:59:40;33.10;33.30
74101;DHT22;62462;52.530;21.682;2023-07-16T09:02:06;33.20;34.20
74101;DHT22;62462;52.530;21.682;2023-07-16T09:04:32;33.30;33.80
74101;DHT22;62462;52.530;21.682;2023-07-16T09:06:58;33.50;33.60
74101;DHT22;62462;52.530;21.682;2023-07-16T09:09:24;33.60;33.60
74101;DHT22;62462;52.530;21.682;2023-07-16T09:11:50;33.60;32.50
74101;DHT22;62462;52.530;21.682;2023-07-16T09:14:19;33.60;32.10
74101;DHT22;62462;52.530;21.682;2023-07-16T09:16:53;33.60;32.30
74101;DHT22;62462;52.530;21.682;2023-07-16T09:19:19;33.60;32.30
74101;DHT22;62462;52.530;21.682;2023-07-16T09:21:52;33.60;32.60
74101;DHT22;62462;52.530;21.682;2023-07-16T09:24:18;33.70;32.80
74101;DHT22;62462;52.530;21.682;2023-07-16T09:26:49;34.00;31.50
74101;DHT22;62462;52.530;21.682;2023-07-16T09:29:15;34.00;32.50
74101;DHT22;62462;52.530;21.682;2023-07-16T09:32:00;34.10;31.90
74101;DHT22;62462;52.530;21.682;2023-07-16T09:34:30;34.20;31.40
74101;DHT22;62462;52.530;21.682;2023-07-16T09:36:57;34.20;31.60
74101;DHT22;62462;52.530;21.682;2023-07-16T09:39:23;34.20;31.20
74101;DHT22;62462;52.530;21.682;2023-07-16T09:41:50;34.10;31.50
74101;DHT22;62462;52.530;21.682;2023-07-16T09:44:17;34.10;32.80
74101;DHT22;62462;52.530;21.682;2023-07-16T09:46:43;34.10;30.60
74101;DHT22;62462;52.530;21.682;2023-07-16T09:49:10;34.10;31.20
74101;DHT22;62462;52.530;21.682;2023-07-16T09:51:37;34.10;31.50
74101;DHT22;62462;52.530;21.682;2023-07-16T09:54:04;34.20;31.60
74101;DHT22;62462;52.530;21.682;2023-07-16T09:56:36;34.30;31.30
74101;DHT22;62462;52.530;21.682;2023-07-16T09:59:08;34.30;30.20
74101;DHT22;62462;52.530;21.682;2023-07-16T10:01:37;34.20;31.10
74101;DHT22;62462;52.530;21.682;2023-07-16T10:04:18;34.30;30.90
74101;DHT22;62462;52.530;21.682;2023-07-16T10:06:59;34.30;30.70
74101;DHT22;62462;52.530;21.682;2023-07-16T10:14:46;34.50;30.30
74101;DHT22;62462;52.530;21.682;2023-07-16T10:17:17;34.40;31.20
74101;DHT22;62462;52.530;21.682;2023-07-16T10:25:27;34.50;31.20
74101;DHT22;62462;52.530;21.682;2023-07-16T10:27:55;34.70;30.80
74101;DHT22;62462;52.530;21.682;2023-07-16T10:30:21;34.80;30.50
74101;DHT22;62462;52.530;21.682;2023-07-16T10:32:47;34.90;30.90
74101;DHT22;62462;52.530;21.682;2023-07-16T10:35:13;34.90;30.90
74101;DHT22;62462;52.530;21.682;2023-07-16T10:37:39;35.10;29.90
74101;DHT22;62462;52.530;21.682;2023-07-16T10:40:09;35.20;29.80
74101;DHT22;62462;52.530;21.682;2023-07-16T10:42:35;35.20;29.50
74101;DHT22;62462;52.530;21.682;2023-07-16T10:45:03;35.20;29.70
74101;DHT22;62462;52.530;21.682;2023-07-16T10:47:33;35.20;29.40
74101;DHT22;62462;52.530;21.682;2023-07-16T10:50:00;35.20;28.80
74101;DHT22;62462;52.530;21.682;2023-07-16T10:52:28;35.20;28.60
74101;DHT22;62462;52.530;21.682;2023-07-16T10:54:54;35.30;28.90
74101;DHT22;62462;52.530;21.682;2023-07-16T10:57:21;35.30;29.40
74101;DHT22;62462;52.530;21.682;2023-07-16T10:59:48;35.30;28.70
74101;DHT22;62462;52.530;21.682;2023-07-16T11:02:15;35.30;29.00
74101;DHT22;62462;52.530;21.682;2023-07-16T11:04:42;35.40;28.80
74101;DHT22;62462;52.530;21.682;2023-07-16T11:07:09;35.60;28.90
74101;DHT22;62462;52.530;21.682;2023-07-16T11:09:54;35.70;28.30
74101;DHT22;62462;52.530;21.682;2023-07-16T11:12:24;35.80;28.20
74101;DHT22;62462;52.530;21.682;2023-07-16T11:14:54;35.90;27.90
74101;DHT22;62462;52.530;21.682;2023-07-16T11:17:21;35.90;27.70
74101;DHT22;62462;52.530;21.682;2023-07-16T11:19:51;35.90;27.70
74101;DHT22;62462;52.530;21.682;2023-07-16T11:22:17;35.80;28.10
74101;DHT22;62462;52.530;21.682;2023-07-16T11:24:47;35.90;27.90
74101;DHT22;62462;52.530;21.682;2023-07-16T11:27:17;36.00;27.70
74101;DHT22;62462;52.530;21.682;2023-07-16T11:29:51;35.80;27.80
74101;DHT22;62462;52.530;21.682;2023-07-16T11:34:53;35.20;28.70
74101;DHT22;62462;52.530;21.682;2023-07-16T11:37:19;35.10;28.90
74101;DHT22;62462;52.530;21.682;2023-07-16T11:39:46;35.10;29.20
74101;DHT22;62462;52.530;21.682;2023-07-16T11:42:13;35.00;28.90
74101;DHT22;62462;52.530;21.682;2023-07-16T11:44:39;34.90;29.20
74101;DHT22;62462;52.530;21.682;2023-07-16T11:47:04;34.70;29.40
74101;DHT22;62462;52.530;21.682;2023-07-16T11:49:30;34.70;30.00
74101;DHT22;62462;52.530;21.682;2023-07-16T11:51:57;34.60;29.80
74101;DHT22;62462;52.530;21.682;2023-07-16T11:54:23;34.70;30.50
74101;DHT22;62462;52.530;21.682;2023-07-16T11:56:49;35.10;30.00
74101;DHT22;62462;52.530;21.682;2023-07-16T11:59:16;35.50;28.90
74101;DHT22;62462;52.530;21.682;2023-07-16T12:01:46;35.70;28.70
74101;DHT22;62462;52.530;21.682;2023-07-16T12:04:14;35.80;28.50
74101;DHT22;62462;52.530;21.682;2023-07-16T12:06:39;35.90;28.20
74101;DHT22;62462;52.530;21.682;2023-07-16T12:09:05;36.10;27.70
74101;DHT22;62462;52.530;21.682;2023-07-16T12:11:31;36.20;27.40
74101;DHT22;62462;52.530;21.682;2023-07-16T12:13:57;36.00;28.00
74101;DHT22;62462;52.530;21.682;2023-07-16T12:16:22;36.00;28.50
74101;DHT22;62462;52.530;21.682;2023-07-16T12:18:48;36.10;28.00
74101;DHT22;62462;52.530;21.682;2023-07-16T12:21:14;36.00;28.00
74101;DHT22;62462;52.530;21.682;2023-07-16T12:23:39;36.00;28.50
74101;DHT22;62462;52.530;21.682;2023-07-16T12:26:05;36.00;28.70
74101;DHT22;62462;52.530;21.682;2023-07-16T12:28:31;36.00;28.40
74101;DHT22;62462;52.530;21.682;2023-07-16T12:30:56;35.90;28.70
74101;DHT22;62462;52.530;21.682;2023-07-16T12:33:22;35.70;28.60
74101;DHT22;62462;52.530;21.682;2023-07-16T12:35:48;35.40;29.10
74101;DHT22;62462;52.530;21.682;2023-07-16T12:38:13;35.30;29.50
74101;DHT22;62462;52.530;21.682;2023-07-16T12:40:39;35.60;29.90
74101;DHT22;62462;52.530;21.682;2023-07-16T12:43:06;35.90;29.20
74101;DHT22;62462;52.530;21.682;2023-07-16T12:45:32;35.90;28.60
74101;DHT22;62462;52.530;21.682;2023-07-16T12:47:58;35.60;29.00
74101;DHT22;62462;52.530;21.682;2023-07-16T12:50:24;35.50;29.50
74101;DHT22;62462;52.530;21.682;2023-07-16T12:52:51;35.70;29.80
74101;DHT22;62462;52.530;21.682;2023-07-16T12:55:17;35.80;29.30
74101;DHT22;62462;52.530;21.682;2023-07-16T12:57:43;36.00;29.60
74101;DHT22;62462;52.530;21.682;2023-07-16T13:00:09;36.10;29.40
74101;DHT22;62462;52.530;21.682;2023-07-16T13:02:36;36.30;29.40
74101;DHT22;62462;52.530;21.682;2023-07-16T13:05:02;36.50;29.40
74101;DHT22;62462;52.530;21.682;2023-07-16T13:07:29;36.60;29.40
74101;DHT22;62462;52.530;21.682;2023-07-16T13:09:55;36.60;29.20
74101;DHT22;62462;52.530;21.682;2023-07-16T13:12:21;36.70;29.40
74101;DHT22;62462;52.530;21.682;2023-07-16T13:14:47;36.60;29.40
74101;DHT22;62462;52.530;21.682;2023-07-16T13:17:12;36.30;29.90
74101;DHT22;62462;52.530;21.682;2023-07-16T13:19:40;36.00;30.10
74101;DHT22;62462;52.530;21.682;2023-07-16T13:22:06;35.70;30.80
74101;DHT22;62462;52.530;21.682;2023-07-16T13:24:31;35.90;31.60
74101;DHT22;62462;52.530;21.682;2023-07-16T13:26:57;36.00;30.60
74101;DHT22;62462;52.530;21.682;2023-07-16T13:29:23;35.80;30.90
74101;DHT22;62462;52.530;21.682;2023-07-16T13:31:48;35.60;31.40
74101;DHT22;62462;52.530;21.682;2023-07-16T13:34:14;35.50;31.40
74101;DHT22;62462;52.530;21.682;2023-07-16T13:36:40;35.60;31.70
74101;DHT22;62462;52.530;21.682;2023-07-16T13:39:05;35.90;31.60
74101;DHT22;62462;52.530;21.682;2023-07-16T13:41:32;36.10;31.00
74101;DHT22;62462;52.530;21.682;2023-07-16T13:43:58;36.20;31.10
74101;DHT22;62462;52.530;21.682;2023-07-16T13:46:23;36.10;30.70
74101;DHT22;62462;52.530;21.682;2023-07-16T13:48:49;36.00;30.90
74101;DHT22;62462;52.530;21.682;2023-07-16T13:51:15;36.10;31.40
74101;DHT22;62462;52.530;21.682;2023-07-16T13:53:40;36.40;31.20
74101;DHT22;62462;52.530;21.682;2023-07-16T13:56:07;36.60;31.00
74101;DHT22;62462;52.530;21.682;2023-07-16T13:58:34;36.70;30.00
74101;DHT22;62462;52.530;21.682;2023-07-16T14:00:59;36.80;30.00
74101;DHT22;62462;52.530;21.682;2023-07-16T14:03:25;36.80;29.70
74101;DHT22;62462;52.530;21.682;2023-07-16T14:05:51;36.70;29.90
74101;DHT22;62462;52.530;21.682;2023-07-16T14:08:17;36.70;30.00
74101;DHT22;62462;52.530;21.682;2023-07-16T14:10:43;36.60;30.10
74101;DHT22;62462;52.530;21.682;2023-07-16T14:13:09;36.40;30.00
74101;DHT22;62462;52.530;21.682;2023-07-16T14:15:35;36.20;30.60
74101;DHT22;62462;52.530;21.682;2023-07-16T14:18:01;35.90;31.30
74101;DHT22;62462;52.530;21.682;2023-07-16T14:20:26;35.70;32.00
74101;DHT22;62462;52.530;21.682;2023-07-16T14:22:52;35.70;32.10
74101;DHT22;62462;52.530;21.682;2023-07-16T14:25:18;35.70;31.70
74101;DHT22;62462;52.530;21.682;2023-07-16T14:27:43;35.80;32.20
74101;DHT22;62462;52.530;21.682;2023-07-16T14:30:09;35.70;32.40
74101;DHT22;62462;52.530;21.682;2023-07-16T14:32:36;35.80;32.20
74101;DHT22;62462;52.530;21.682;2023-07-16T14:35:02;35.60;31.40
74101;DHT22;62462;52.530;21.682;2023-07-16T14:37:29;35.40;32.20
74101;DHT22;62462;52.530;21.682;2023-07-16T14:39:55;35.40;31.80
74101;DHT22;62462;52.530;21.682;2023-07-16T14:42:20;35.40;31.80
74101;DHT22;62462;52.530;21.682;2023-07-16T14:44:46;35.20;31.40
74101;DHT22;62462;52.530;21.682;2023-07-16T14:47:12;35.00;32.00
74101;DHT22;62462;52.530;21.682;2023-07-16T14:49:38;34.70;32.90
74101;DHT22;62462;52.530;21.682;2023-07-16T14:52:04;34.50;33.10
74101;DHT22;62462;52.530;21.682;2023-07-16T14:54:29;34.30;33.50
74101;DHT22;62462;52.530;21.682;2023-07-16T14:56:55;34.30;33.90
74101;DHT22;62462;52.530;21.682;2023-07-16T14:59:21;34.20;33.30
74101;DHT22;62462;52.530;21.682;2023-07-16T15:01:47;34.00;33.40
74101;DHT22;62462;52.530;21.682;2023-07-16T15:04:13;33.90;33.20
74101;DHT22;62462;52.530;21.682;2023-07-16T15:06:39;33.80;33.60
74101;DHT22;62462;52.530;21.682;2023-07-16T15:09:05;33.80;33.20
74101;DHT22;62462;52.530;21.682;2023-07-16T15:11:30;33.70;33.00
74101;DHT22;62462;52.530;21.682;2023-07-16T15:13:59;33.70;33.00
74101;DHT22;62462;52.530;21.682;2023-07-16T15:16:25;33.60;33.10
74101;DHT22;62462;52.530;21.682;2023-07-16T15:18:50;33.70;33.10
74101;DHT22;62462;52.530;21.682;2023-07-16T15:21:16;33.60;32.60
74101;DHT22;62462;52.530;21.682;2023-07-16T15:23:43;33.60;32.90
74101;DHT22;62462;52.530;21.682;2023-07-16T15:26:10;33.50;33.00
74101;DHT22;62462;52.530;21.682;2023-07-16T15:28:37;33.50;33.00
74101;DHT22;62462;52.530;21.682;2023-07-16T15:31:04;33.50;33.30
74101;DHT22;62462;52.530;21.682;2023-07-16T15:33:30;33.50;33.00